Time;durP1;ratioP1;P1;durP2;ratioP2;P2;SDS_P1;SDS_P2;PMS_P1;PMS_P2;Temp;Humidity;BMP_temperature;BMP_pressure;BME280_temperature;BME280_humidity;BME280_pressure;Samples;Min_cycle;Max_cycle;Signal;HPM_P1;HPM_P2
2024/01/17 00:01:57;;;;;;;15.00;6.30;;;-0.80;99.90;;;;;;5076869;28;20055;-72
2024/01/17 00:04:24;;;;;;;11.95;5.88;;;-0.80;99.90;;;;;;5060338;28;20123;-72
2024/01/17 00:06:50;;;;;;;11.98;6.43;;;-0.80;99.90;;;;;;5076897;28;20047;-72
2024/01/17 00:09:16;;;;;;;12.85;6.47;;;-0.70;99.90;;;;;;5076980;28;20036;-72
2024/01/17 00:11:44;;;;;;;13.38;6.20;;;-0.80;99.90;;;;;;5077415;28;20040;-71
2024/01/17 00:14:11;;;;;;;11.10;6.72;;;-0.80;99.90;;;;;;5077068;28;20051;-71
2024/01/17 00:16:37;;;;;;;13.20;6.72;;;-0.80;99.90;;;;;;5076747;28;20122;-71
2024/01/17 00:19:03;;;;;;;12.60;7.22;;;-0.80;99.90;;;;;;5076658;28;20036;-71
2024/01/17 00:21:29;;;;;;;12.77;6.72;;;-0.80;99.90;;;;;;5076940;28;20499;-71
2024/01/17 00:23:55;;;;;;;12.25;6.22;;;-0.80;99.90;;;;;;5076890;28;20086;-72
2024/01/17 00:26:21;;;;;;;14.55;7.13;;;-0.70;99.90;;;;;;5076622;28;20048;-69
2024/01/17 00:28:47;;;;;;;13.32;6.95;;;-0.70;99.90;;;;;;5059821;28;20040;-70
2024/01/17 00:31:12;;;;;;;15.07;6.97;;;-0.70;99.90;;;;;;5076567;28;20047;-71
2024/01/17 00:33:38;;;;;;;14.65;7.45;;;-0.70;99.90;;;;;;5060025;28;20040;-71
2024/01/17 00:36:04;;;;;;;13.77;7.40;;;-0.70;99.90;;;;;;5059167;28;20040;-71
2024/01/17 00:38:31;;;;;;;11.90;6.80;;;-0.70;99.90;;;;;;5076307;28;20040;-71
2024/01/17 00:40:57;;;;;;;15.48;8.32;;;-0.70;99.90;;;;;;5076401;28;20036;-71
2024/01/17 00:43:23;;;;;;;13.77;7.40;;;-0.70;99.90;;;;;;5076225;28;20043;-71
2024/01/17 00:45:49;;;;;;;17.35;8.40;;;-0.70;99.90;;;;;;5076296;28;20040;-71
2024/01/17 00:48:15;;;;;;;15.40;8.68;;;-0.70;99.90;;;;;;5076162;28;20040;-71
2024/01/17 00:50:41;;;;;;;14.80;8.52;;;-0.70;99.90;;;;;;5075811;28;20500;-71
2024/01/17 00:53:07;;;;;;;15.32;9.80;;;-0.70;99.90;;;;;;5059812;28;20040;-71
2024/01/17 00:55:34;;;;;;;14.82;9.25;;;-0.50;99.90;;;;;;5059786;28;20062;-71
2024/01/17 00:57:59;;;;;;;14.77;8.40;;;-0.70;99.90;;;;;;5059751;28;20036;-71
2024/01/17 01:00:25;;;;;;;16.38;9.55;;;-0.70;99.90;;;;;;5059548;28;20036;-71
2024/01/17 01:02:51;;;;;;;15.43;9.50;;;-0.70;99.90;;;;;;5076154;28;20035;-71
2024/01/17 01:05:17;;;;;;;16.85;9.85;;;-0.70;99.90;;;;;;5042559;28;20143;-71
2024/01/17 01:07:44;;;;;;;17.38;10.55;;;-0.70;99.90;;;;;;5076049;28;20081;-71
2024/01/17 01:10:10;;;;;;;16.73;9.50;;;-0.70;99.90;;;;;;5075624;28;20048;-71
2024/01/17 01:12:37;;;;;;;17.88;9.80;;;-0.70;99.90;;;;;;5075911;28;20038;-71
2024/01/17 01:15:04;;;;;;;17.00;10.02;;;-0.80;99.90;;;;;;5075652;28;20075;-71
2024/01/17 01:17:30;;;;;;;16.88;9.95;;;-0.90;99.90;;;;;;5059265;28;20071;-71
2024/01/17 01:19:56;;;;;;;17.17;9.75;;;-0.90;99.90;;;;;;5075901;28;20048;-71
2024/01/17 01:22:22;;;;;;;15.45;8.80;;;-0.90;99.90;;;;;;5075232;28;20063;-71
2024/01/17 01:24:48;;;;;;;17.45;10.00;;;-0.90;99.90;;;;;;5059076;28;20511;-71
2024/01/17 01:27:14;;;;;;;16.90;9.90;;;-0.80;99.90;;;;;;5058950;28;20050;-71
2024/01/17 01:29:40;;;;;;;17.42;10.80;;;-0.90;99.90;;;;;;5075504;28;20503;-71
2024/01/17 01:32:07;;;;;;;17.17;10.20;;;-0.90;99.90;;;;;;5058834;28;20070;-71
2024/01/17 01:34:33;;;;;;;17.42;10.27;;;-0.80;99.90;;;;;;5042550;28;20047;-71
2024/01/17 01:37:00;;;;;;;16.80;9.35;;;-0.80;99.90;;;;;;5075142;28;20036;-71
2024/01/17 01:39:26;;;;;;;16.67;10.27;;;-0.80;99.90;;;;;;5059169;28;20507;-70
2024/01/17 01:41:52;;;;;;;16.30;10.18;;;-0.80;99.90;;;;;;5075415;28;20040;-70
2024/01/17 01:44:18;;;;;;;18.58;10.70;;;-0.80;99.90;;;;;;5058892;28;20043;-70
2024/01/17 01:46:46;;;;;;;17.55;11.70;;;-0.80;99.90;;;;;;5059333;28;20489;-70
2024/01/17 01:49:17;;;;;;;17.85;10.95;;;-0.80;99.90;;;;;;5093878;28;20050;-71
2024/01/17 01:51:46;;;;;;;19.13;11.23;;;-0.80;99.90;;;;;;5092066;28;20046;-70
2024/01/17 01:54:14;;;;;;;20.67;10.50;;;-0.80;99.90;;;;;;5091491;28;20043;-71
2024/01/17 01:56:40;;;;;;;19.60;11.88;;;-0.80;99.90;;;;;;5074354;28;20031;-70
2024/01/17 01:59:08;;;;;;;18.13;11.35;;;-0.80;99.90;;;;;;5096662;28;20485;-70
2024/01/17 02:01:35;;;;;;;20.48;12.80;;;-0.80;99.90;;;;;;5076366;28;20046;-72
2024/01/17 02:04:02;;;;;;;19.38;12.10;;;-0.80;99.90;;;;;;5059675;28;20040;-71
2024/01/17 02:06:34;;;;;;;18.23;11.73;;;-0.90;99.90;;;;;;5076604;28;20055;-71
2024/01/17 02:09:00;;;;;;;17.50;10.82;;;-0.80;99.90;;;;;;5058877;28;20273;-71
2024/01/17 02:11:30;;;;;;;17.77;10.73;;;-0.90;99.90;;;;;;5059005;28;20040;-71
2024/01/17 02:13:57;;;;;;;21.35;12.55;;;-0.90;99.90;;;;;;5058664;28;20032;-71
2024/01/17 02:16:23;;;;;;;20.15;13.32;;;-0.90;99.90;;;;;;5075532;28;20399;-71
2024/01/17 02:18:50;;;;;;;20.73;11.55;;;-0.90;99.90;;;;;;5092986;28;20047;-71
2024/01/17 02:21:16;;;;;;;18.65;12.07;;;-1.00;99.90;;;;;;5058293;28;20146;-71
2024/01/17 02:23:42;;;;;;;18.60;11.55;;;-0.70;99.90;;;;;;5041318;28;20093;-71
2024/01/17 02:26:08;;;;;;;19.75;11.95;;;-0.90;99.90;;;;;;5075025;28;20043;-71
2024/01/17 02:28:34;;;;;;;20.58;12.70;;;-0.90;99.90;;;;;;5057863;28;20044;-71
2024/01/17 02:31:00;;;;;;;22.48;13.45;;;-1.00;99.90;;;;;;5074851;28;20040;-71
2024/01/17 02:33:27;;;;;;;20.45;13.32;;;-1.00;99.90;;;;;;5074814;28;20040;-71
2024/01/17 02:35:53;;;;;;;19.73;12.23;;;-1.00;99.90;;;;;;5074561;28;20036;-71
2024/01/17 02:38:18;;;;;;;21.45;12.60;;;-0.90;99.90;;;;;;5057969;28;20047;-71
2024/01/17 02:40:44;;;;;;;21.83;12.63;;;-1.00;99.90;;;;;;5057947;28;20067;-71
2024/01/17 02:43:10;;;;;;;21.63;13.00;;;-1.00;99.90;;;;;;5074209;28;20055;-71
2024/01/17 02:45:36;;;;;;;20.38;12.88;;;-1.00;99.90;;;;;;5057744;28;20040;-71
2024/01/17 02:48:02;;;;;;;18.50;11.63;;;-1.00;99.90;;;;;;5041386;28;20032;-71
2024/01/17 02:50:29;;;;;;;19.17;12.27;;;-1.00;99.90;;;;;;5074514;28;20052;-71
2024/01/17 02:52:55;;;;;;;17.38;11.13;;;-1.00;99.90;;;;;;5074285;28;20062;-71
2024/01/17 02:55:24;;;;;;;22.63;13.10;;;-1.00;99.90;;;;;;5074419;28;20040;-71
2024/01/17 02:57:51;;;;;;;20.77;12.68;;;-1.00;99.90;;;;;;5074663;28;20119;-71
2024/01/17 03:00:17;;;;;;;21.65;13.15;;;-1.00;99.90;;;;;;5077084;28;20067;-71
2024/01/17 03:02:44;;;;;;;20.23;12.57;;;-1.00;99.90;;;;;;5061450;28;20044;-71
2024/01/17 03:05:10;;;;;;;20.23;11.88;;;-1.00;99.90;;;;;;5078342;28;20079;-71
2024/01/17 03:07:36;;;;;;;18.27;12.25;;;-1.00;99.90;;;;;;5078235;28;20040;-71
2024/01/17 03:10:02;;;;;;;19.05;11.40;;;-1.00;99.90;;;;;;5077741;28;20040;-71
2024/01/17 03:12:28;;;;;;;21.13;12.73;;;-1.00;99.90;;;;;;5078031;28;20488;-71
2024/01/17 03:14:54;;;;;;;22.02;12.20;;;-1.00;99.90;;;;;;5061098;28;20050;-71
2024/01/17 03:17:20;;;;;;;16.33;9.77;;;-1.00;99.90;;;;;;5077840;28;20119;-71
2024/01/17 03:19:47;;;;;;;18.08;12.02;;;-1.00;99.90;;;;;;5078102;28;20043;-71
2024/01/17 03:22:15;;;;;;;19.98;11.35;;;-1.00;99.90;;;;;;5060891;28;20091;-71
2024/01/17 03:24:41;;;;;;;17.98;11.75;;;-1.00;99.90;;;;;;5077771;28;20048;-71
2024/01/17 03:27:07;;;;;;;19.50;12.23;;;-1.00;99.90;;;;;;5061224;28;20116;-71
2024/01/17 03:29:33;;;;;;;15.77;10.65;;;-1.10;99.90;;;;;;5077337;28;20463;-71
2024/01/17 03:31:59;;;;;;;16.48;10.40;;;-1.10;99.90;;;;;;5077978;28;20055;-71
2024/01/17 03:34:24;;;;;;;19.58;11.48;;;-1.10;99.90;;;;;;5044239;28;20039;-71
2024/01/17 03:36:50;;;;;;;18.05;11.65;;;-1.10;99.90;;;;;;5077783;28;20036;-71
2024/01/17 03:39:16;;;;;;;16.00;10.65;;;-1.10;99.90;;;;;;5044497;28;20046;-71
2024/01/17 03:41:42;;;;;;;18.65;10.48;;;-1.10;99.90;;;;;;5077308;28;20044;-71
2024/01/17 03:44:07;;;;;;;18.02;11.65;;;-1.20;99.90;;;;;;5061014;28;20567;-71
2024/01/17 03:46:33;;;;;;;18.70;11.55;;;-1.20;99.90;;;;;;5044235;28;20038;-71
2024/01/17 03:48:59;;;;;;;19.10;11.98;;;-1.20;99.90;;;;;;5060998;28;20079;-71
2024/01/17 03:51:25;;;;;;;19.15;11.75;;;-1.20;99.90;;;;;;5077479;28;20396;-70
2024/01/17 03:53:52;;;;;;;19.30;11.63;;;-1.20;99.90;;;;;;5060905;28;20109;-71
2024/01/17 03:56:17;;;;;;;15.50;10.25;;;-1.20;99.90;;;;;;5077493;28;20533;-71
2024/01/17 03:58:43;;;;;;;16.98;9.75;;;-1.20;99.90;;;;;;5060445;28;20044;-71
2024/01/17 04:01:11;;;;;;;18.20;11.40;;;-1.20;99.90;;;;;;5060697;28;20035;-69
2024/01/17 04:03:37;;;;;;;17.92;10.70;;;-1.20;99.90;;;;;;5060567;28;20040;-70
2024/01/17 04:06:03;;;;;;;17.63;10.45;;;-1.20;99.90;;;;;;5060699;28;20032;-69
2024/01/17 04:08:29;;;;;;;17.33;10.65;;;-1.20;99.90;;;;;;5060390;28;20032;-69
2024/01/17 04:10:55;;;;;;;17.83;11.38;;;-1.20;99.90;;;;;;5075584;28;20428;-69
2024/01/17 04:13:21;;;;;;;18.40;11.50;;;-1.10;99.90;;;;;;5077164;28;20420;-70
2024/01/17 04:15:47;;;;;;;15.60;10.02;;;-1.20;99.90;;;;;;5077037;28;20036;-70
2024/01/17 04:18:13;;;;;;;16.27;11.10;;;-1.20;99.90;;;;;;5060475;28;20149;-70
2024/01/17 04:20:39;;;;;;;17.38;10.93;;;-1.20;99.90;;;;;;5077055;28;20040;-70
2024/01/17 04:23:06;;;;;;;16.20;10.00;;;-1.10;99.90;;;;;;5059865;28;20059;-70
2024/01/17 04:25:31;;;;;;;18.45;10.75;;;-1.20;99.90;;;;;;5043215;28;20126;-69
2024/01/17 04:27:57;;;;;;;17.48;10.18;;;-1.20;99.90;;;;;;5076662;28;20127;-69
2024/01/17 04:30:24;;;;;;;17.05;10.27;;;-1.20;99.90;;;;;;5076504;28;20460;-70
2024/01/17 04:32:49;;;;;;;15.95;8.95;;;-1.10;99.90;;;;;;5060059;28;20044;-69
2024/01/17 04:35:20;;;;;;;19.02;10.77;;;-1.10;99.90;;;;;;5059873;28;20400;-69
2024/01/17 04:37:46;;;;;;;16.42;10.02;;;-1.10;99.90;;;;;;5059924;28;20035;-70
2024/01/17 04:40:12;;;;;;;16.95;9.43;;;-1.10;99.90;;;;;;5076364;28;20097;-70
2024/01/17 04:42:38;;;;;;;17.30;9.73;;;-1.10;99.90;;;;;;5076459;28;20044;-70
2024/01/17 04:45:05;;;;;;;17.23;10.32;;;-1.10;99.90;;;;;;5076456;28;20442;-70
2024/01/17 04:47:31;;;;;;;18.88;10.55;;;-1.10;99.90;;;;;;5076153;28;20053;-69
2024/01/17 04:49:57;;;;;;;14.77;10.57;;;-1.10;99.90;;;;;;5076099;28;20044;-70
2024/01/17 04:52:23;;;;;;;16.27;10.70;;;-1.10;99.90;;;;;;5059712;28;20039;-69
2024/01/17 04:54:49;;;;;;;17.73;10.98;;;-1.10;99.90;;;;;;5042807;28;20040;-70
2024/01/17 04:57:16;;;;;;;15.38;10.07;;;-1.10;99.90;;;;;;5076027;28;20036;-70
2024/01/17 04:59:42;;;;;;;16.52;10.50;;;-1.20;99.90;;;;;;5075802;28;20036;-70
2024/01/17 05:02:08;;;;;;;17.13;10.38;;;-1.10;99.90;;;;;;5076276;28;20400;-70
2024/01/17 05:04:34;;;;;;;18.17;9.77;;;-1.10;99.90;;;;;;5076052;28;20036;-70
2024/01/17 05:07:00;;;;;;;15.55;10.15;;;-1.10;99.90;;;;;;5059451;28;20052;-70
2024/01/17 05:09:26;;;;;;;16.50;9.57;;;-1.10;99.90;;;;;;5075918;28;20123;-70
2024/01/17 05:11:55;;;;;;;15.80;9.10;;;-1.10;99.90;;;;;;5058717;28;20036;-70
2024/01/17 05:14:21;;;;;;;17.63;9.95;;;-1.10;99.90;;;;;;5075713;28;20377;-70
2024/01/17 05:16:46;;;;;;;18.13;10.55;;;-1.10;99.90;;;;;;5058874;28;20127;-70
2024/01/17 05:19:17;;;;;;;18.08;10.90;;;-1.10;99.90;;;;;;5058902;28;20035;-70
2024/01/17 05:21:43;;;;;;;15.80;9.35;;;-1.10;99.90;;;;;;5074968;28;20044;-70
2024/01/17 05:24:08;;;;;;;18.67;10.98;;;-1.10;99.90;;;;;;5059293;28;20101;-70
2024/01/17 05:26:34;;;;;;;17.85;10.02;;;-1.20;99.90;;;;;;5059009;28;20040;-70
2024/01/17 05:29:00;;;;;;;17.02;10.52;;;-1.20;99.90;;;;;;5058800;28;20614;-70
2024/01/17 05:31:26;;;;;;;16.95;10.85;;;-1.20;99.90;;;;;;5075496;28;20406;-70
2024/01/17 05:33:51;;;;;;;17.52;9.98;;;-1.20;99.90;;;;;;5058843;28;20032;-70
2024/01/17 05:36:17;;;;;;;18.02;10.75;;;-1.20;99.90;;;;;;5058678;28;20040;-69
2024/01/17 05:38:43;;;;;;;17.65;11.15;;;-1.20;99.90;;;;;;5058111;28;20377;-70
2024/01/17 05:41:09;;;;;;;16.98;9.85;;;-1.20;99.90;;;;;;5074973;28;20044;-70
2024/01/17 05:43:34;;;;;;;17.92;9.73;;;-1.20;99.90;;;;;;5041893;28;20036;-70
2024/01/17 05:46:00;;;;;;;15.38;10.27;;;-1.30;99.90;;;;;;5075080;28;20530;-70
2024/01/17 05:48:26;;;;;;;15.88;10.48;;;-1.30;99.90;;;;;;5058527;28;20405;-70
2024/01/17 05:50:52;;;;;;;18.80;10.50;;;-1.10;99.90;;;;;;5058310;28;20189;-70
2024/01/17 05:53:17;;;;;;;17.25;10.77;;;-1.30;99.90;;;;;;5074978;28;20089;-70
2024/01/17 05:55:44;;;;;;;16.80;10.48;;;-1.30;99.90;;;;;;5074929;28;20040;-70
2024/01/17 05:58:10;;;;;;;17.45;10.32;;;-1.30;99.90;;;;;;5074953;28;20071;-70
2024/01/17 06:00:37;;;;;;;18.17;9.73;;;-1.30;99.90;;;;;;5042020;28;20522;-70
2024/01/17 06:03:04;;;;;;;16.88;10.60;;;-1.30;99.90;;;;;;5058762;28;20503;-70
2024/01/17 06:05:30;;;;;;;17.88;10.75;;;-1.40;99.90;;;;;;5057785;28;20043;-70
2024/01/17 06:07:56;;;;;;;19.15;10.13;;;-1.40;99.90;;;;;;5091587;28;20491;-70
2024/01/17 06:10:23;;;;;;;16.08;10.77;;;-1.40;99.90;;;;;;5057962;28;20040;-70
2024/01/17 06:12:50;;;;;;;16.02;10.15;;;-1.50;99.90;;;;;;5058278;28;20484;-70
2024/01/17 06:15:17;;;;;;;15.77;9.40;;;-1.50;99.90;;;;;;5075167;28;20036;-70
2024/01/17 06:17:44;;;;;;;15.38;9.52;;;-1.50;99.90;;;;;;5058323;28;20032;-70
2024/01/17 06:20:13;;;;;;;18.17;10.45;;;-1.60;99.90;;;;;;5075035;28;20400;-71
2024/01/17 06:22:39;;;;;;;17.52;10.55;;;-1.60;99.90;;;;;;5074552;28;20113;-71
2024/01/17 06:25:06;;;;;;;17.58;10.60;;;-1.10;99.90;;;;;;5075005;28;20492;-71
2024/01/17 06:27:32;;;;;;;15.27;10.23;;;-1.70;99.90;;;;;;5058359;28;20036;-71
2024/01/17 06:29:58;;;;;;;18.27;10.90;;;-1.70;99.90;;;;;;5074524;28;20044;-71
2024/01/17 06:32:24;;;;;;;18.58;10.95;;;-1.80;99.90;;;;;;5074924;28;20039;-71
2024/01/17 06:34:50;;;;;;;16.67;10.88;;;-1.80;99.90;;;;;;5043890;28;20124;-71
2024/01/17 06:37:16;;;;;;;18.30;10.82;;;-1.80;99.90;;;;;;5078697;28;20039;-71
2024/01/17 06:39:43;;;;;;;15.38;9.95;;;-1.80;99.90;;;;;;5029279;28;20052;-71
2024/01/17 06:42:09;;;;;;;16.60;10.45;;;-1.90;99.90;;;;;;5062038;28;20065;-71
2024/01/17 06:44:35;;;;;;;17.33;10.32;;;-1.90;99.90;;;;;;5061933;28;20058;-71
2024/01/17 06:47:01;;;;;;;17.92;10.73;;;-1.90;99.90;;;;;;5078415;28;20047;-71
2024/01/17 06:49:27;;;;;;;14.95;9.32;;;-1.90;99.90;;;;;;5045070;28;20044;-71
2024/01/17 06:51:53;;;;;;;17.60;10.40;;;-1.90;99.90;;;;;;5062040;28;20090;-71
2024/01/17 06:54:18;;;;;;;20.33;10.75;;;-1.90;99.90;;;;;;5078642;28;20078;-71
2024/01/17 06:56:44;;;;;;;18.00;11.02;;;-1.90;99.90;;;;;;5061732;28;20032;-71
2024/01/17 06:59:10;;;;;;;17.02;10.32;;;-1.90;99.90;;;;;;5095088;28;20044;-71
2024/01/17 07:01:46;;;;;;;17.17;10.40;;;-2.00;99.90;;;;;;5061541;28;20109;-71
2024/01/17 07:04:12;;;;;;;15.50;9.27;;;-2.00;99.90;;;;;;5078056;28;20044;-70
2024/01/17 07:06:38;;;;;;;17.45;10.38;;;-2.00;99.90;;;;;;5061868;28;20377;-69
2024/01/17 07:09:04;;;;;;;16.75;10.68;;;-2.00;99.90;;;;;;5061700;28;20036;-70
2024/01/17 07:11:30;;;;;;;17.80;9.80;;;-2.10;99.90;;;;;;5078329;28;20028;-70
2024/01/17 07:13:55;;;;;;;14.88;8.88;;;-2.10;99.90;;;;;;5061390;28;20040;-69
2024/01/17 07:16:22;;;;;;;16.60;9.77;;;-2.10;99.90;;;;;;5077719;28;20454;-70
2024/01/17 07:18:48;;;;;;;17.67;10.30;;;-2.10;99.90;;;;;;5061611;28;20396;-70
2024/01/17 07:21:14;;;;;;;17.50;9.77;;;-2.10;99.90;;;;;;5061157;28;20173;-70
2024/01/17 07:23:40;;;;;;;16.08;10.13;;;-2.20;99.90;;;;;;5077296;28;20139;-70
2024/01/17 07:26:06;;;;;;;18.25;9.82;;;-2.20;99.90;;;;;;5078050;28;20181;-70
2024/01/17 07:28:32;;;;;;;16.77;9.80;;;-2.10;99.90;;;;;;5061272;28;20123;-70
2024/01/17 07:30:58;;;;;;;17.98;9.88;;;-2.20;99.90;;;;;;5077611;28;20098;-70
2024/01/17 07:33:24;;;;;;;18.38;10.43;;;-2.20;99.90;;;;;;5044292;28;20036;-70
2024/01/17 07:35:49;;;;;;;16.38;9.90;;;-2.20;99.90;;;;;;5077542;28;20037;-70
2024/01/17 07:38:15;;;;;;;19.60;10.27;;;-2.30;99.90;;;;;;5077472;28;20093;-71
2024/01/17 07:40:42;;;;;;;14.40;10.05;;;-2.30;99.90;;;;;;5044637;28;20557;-70
2024/01/17 07:43:08;;;;;;;15.25;9.52;;;-2.30;99.90;;;;;;5077127;28;20043;-69
2024/01/17 07:45:34;;;;;;;16.73;9.45;;;-2.30;99.90;;;;;;5077371;28;20040;-69
2024/01/17 07:48:00;;;;;;;15.98;9.38;;;-2.30;99.90;;;;;;5060698;28;20078;-69
2024/01/17 07:50:26;;;;;;;14.63;9.43;;;-2.30;99.90;;;;;;5077193;28;20075;-69
2024/01/17 07:52:52;;;;;;;15.25;8.45;;;-2.30;99.90;;;;;;5060962;28;20089;-70
2024/01/17 07:55:18;;;;;;;15.57;9.15;;;-2.30;99.90;;;;;;5060560;28;20480;-69
2024/01/17 07:57:44;;;;;;;15.73;9.65;;;-2.30;99.90;;;;;;5060699;28;20510;-69
2024/01/17 08:00:11;;;;;;;15.40;9.20;;;-2.30;99.90;;;;;;5077624;28;20036;-69
2024/01/17 08:02:39;;;;;;;18.88;8.75;;;-2.20;99.90;;;;;;5060913;28;20039;-70
2024/01/17 08:05:05;;;;;;;14.95;8.98;;;-2.20;99.90;;;;;;5060912;28;20044;-73
2024/01/17 08:07:31;;;;;;;17.85;9.43;;;-2.20;99.90;;;;;;5077873;28;20059;-71
2024/01/17 08:09:56;;;;;;;15.10;10.07;;;-2.20;99.90;;;;;;5060698;28;20062;-71
2024/01/17 08:12:22;;;;;;;17.05;10.15;;;-2.30;99.90;;;;;;5077427;28;20044;-71
2024/01/17 08:14:48;;;;;;;17.38;9.55;;;-2.20;99.90;;;;;;5047273;28;20516;-70
2024/01/17 08:17:14;;;;;;;17.73;10.13;;;-2.20;99.90;;;;;;5046827;28;20089;-70
2024/01/17 08:19:40;;;;;;;14.25;9.32;;;-2.20;99.90;;;;;;5060255;28;20338;-72
2024/01/17 08:22:06;;;;;;;14.65;9.32;;;-2.20;99.90;;;;;;5060145;28;20114;-71
2024/01/17 08:24:32;;;;;;;16.55;9.13;;;-2.10;99.90;;;;;;5060124;28;20055;-71
2024/01/17 08:26:58;;;;;;;17.35;8.93;;;-2.10;99.90;;;;;;5060133;28;20040;-70
2024/01/17 08:29:24;;;;;;;16.20;9.70;;;-2.10;99.90;;;;;;5076658;28;20101;-71
2024/01/17 08:31:50;;;;;;;15.23;8.95;;;-2.10;99.90;;;;;;5076982;28;20032;-71
2024/01/17 08:34:17;;;;;;;14.10;9.63;;;-2.10;99.90;;;;;;5060145;28;20040;-71
2024/01/17 08:36:42;;;;;;;14.02;8.57;;;-2.10;99.90;;;;;;5076777;28;20071;-70
2024/01/17 08:39:11;;;;;;;14.15;8.68;;;-1.90;99.90;;;;;;5076793;28;20047;-70
2024/01/17 08:41:40;;;;;;;14.60;8.98;;;-2.00;99.90;;;;;;5059785;28;20087;-71
2024/01/17 08:44:06;;;;;;;15.65;9.60;;;-2.00;99.90;;;;;;5076692;28;20047;-70
2024/01/17 08:46:31;;;;;;;14.75;9.02;;;-2.00;99.90;;;;;;5076205;28;20040;-71
2024/01/17 08:48:57;;;;;;;16.90;9.43;;;-1.90;99.90;;;;;;5059480;28;20097;-71
2024/01/17 08:51:24;;;;;;;15.95;9.05;;;-1.90;99.90;;;;;;5076152;28;20036;-71
2024/01/17 08:53:50;;;;;;;17.20;9.38;;;-1.90;99.90;;;;;;5076130;28;20096;-71
2024/01/17 08:56:16;;;;;;;15.27;9.35;;;-1.80;99.90;;;;;;5059325;28;20488;-71
2024/01/17 08:58:42;;;;;;;16.88;9.82;;;-1.80;99.90;;;;;;5042965;28;20043;-71
2024/01/17 09:01:11;;;;;;;15.02;9.23;;;-1.80;99.90;;;;;;5059262;28;20036;-71
2024/01/17 09:03:38;;;;;;;15.45;9.35;;;-1.70;99.90;;;;;;5076253;28;20128;-71
2024/01/17 09:06:04;;;;;;;17.15;10.02;;;-1.70;99.90;;;;;;5075840;28;20138;-71
2024/01/17 09:08:30;;;;;;;18.27;9.95;;;-1.60;99.90;;;;;;5059339;28;20156;-71
2024/01/17 09:10:55;;;;;;;16.35;9.15;;;-1.60;99.90;;;;;;5059044;28;20040;-71
2024/01/17 09:13:21;;;;;;;14.30;9.02;;;-1.60;99.90;;;;;;5059207;28;20040;-71
2024/01/17 09:15:47;;;;;;;16.65;9.85;;;-1.50;99.90;;;;;;5058994;28;20093;-70
2024/01/17 09:18:17;;;;;;;15.80;9.93;;;-1.50;99.90;;;;;;5075734;28;20427;-71
2024/01/17 09:20:44;;;;;;;14.93;9.43;;;-1.40;99.90;;;;;;5059708;28;20132;-71
2024/01/17 09:23:10;;;;;;;16.05;9.15;;;-1.40;99.90;;;;;;5058971;28;20052;-71
2024/01/17 09:25:36;;;;;;;16.50;9.23;;;-1.40;99.90;;;;;;5075754;28;20127;-71
2024/01/17 09:28:02;;;;;;;13.95;9.27;;;-1.30;99.90;;;;;;5075728;28;20040;-72
2024/01/17 09:30:28;;;;;;;17.52;8.98;;;-1.30;99.90;;;;;;5042276;28;20044;-71
2024/01/17 09:32:53;;;;;;;15.75;9.88;;;-1.30;99.90;;;;;;5058686;28;20564;-71
2024/01/17 09:35:19;;;;;;;17.15;9.25;;;-1.20;99.90;;;;;;5075370;28;20086;-71
2024/01/17 09:37:45;;;;;;;16.38;8.93;;;-1.20;99.90;;;;;;5075230;28;20051;-71
2024/01/17 09:40:13;;;;;;;16.42;8.93;;;-1.10;99.90;;;;;;5042205;28;20047;-71
2024/01/17 09:42:40;;;;;;;14.27;9.25;;;-1.10;99.90;;;;;;5075558;28;20102;-71
2024/01/17 09:45:09;;;;;;;13.73;8.77;;;-1.00;99.90;;;;;;5058908;28;20491;-71
2024/01/17 09:47:38;;;;;;;13.52;9.10;;;-1.00;99.90;;;;;;5075171;28;20048;-71
2024/01/17 09:50:05;;;;;;;15.95;9.57;;;-0.90;99.90;;;;;;5058510;28;20043;-71
2024/01/17 09:52:33;;;;;;;14.85;9.07;;;-0.90;99.90;;;;;;5075392;28;20044;-71
2024/01/17 09:55:01;;;;;;;15.48;9.10;;;-0.80;99.90;;;;;;5074988;28;20036;-71
2024/01/17 09:57:34;;;;;;;18.08;9.10;;;-0.80;99.90;;;;;;5075169;28;20172;-71
2024/01/17 10:00:06;;;;;;;14.30;8.98;;;-0.70;99.90;;;;;;5075608;28;20094;-70
2024/01/17 10:02:33;;;;;;;;;;;-0.70;99.90;;;;;;5075361;28;20055;-71
2024/01/17 10:05:00;;;;;;;14.93;8.15;;;-0.60;99.90;;;;;;5091753;28;19920;-70
2024/01/17 10:07:26;;;;;;;15.95;9.50;;;-0.60;99.90;;;;;;5075128;28;20472;-70
2024/01/17 10:09:52;;;;;;;13.48;8.57;;;-0.60;99.90;;;;;;5073746;28;20123;-71
2024/01/17 10:12:19;;;;;;;14.77;8.85;;;-0.70;99.90;;;;;;5058343;28;20040;-70
2024/01/17 10:14:46;;;;;;;14.48;8.23;;;-0.60;99.90;;;;;;5075052;28;20044;-70
2024/01/17 10:17:12;;;;;;;15.82;8.45;;;-0.60;99.90;;;;;;5074911;28;20075;-70
2024/01/17 10:19:38;;;;;;;12.50;8.10;;;-0.60;99.90;;;;;;5058007;28;20109;-70
2024/01/17 10:22:06;;;;;;;14.15;8.82;;;-0.60;99.90;;;;;;5057775;28;20056;-70
2024/01/17 10:24:35;;;;;;;14.77;8.40;;;-0.60;99.90;;;;;;5058346;28;20135;-71
2024/01/17 10:27:04;;;;;;;16.35;9.40;;;-0.60;99.90;;;;;;5074414;28;20048;-71
2024/01/17 10:29:31;;;;;;;16.75;9.02;;;-0.50;99.90;;;;;;5057790;28;20116;-71
2024/01/17 10:32:00;;;;;;;15.60;9.05;;;-0.50;99.90;;;;;;5057962;28;20059;-71
2024/01/17 10:34:33;;;;;;;14.50;8.75;;;-0.50;99.90;;;;;;5041293;28;20089;-71
2024/01/17 10:37:02;;;;;;;15.93;8.90;;;-0.50;99.90;;;;;;5074578;28;20036;-71
2024/01/17 10:39:29;;;;;;;14.27;9.05;;;-0.50;99.90;;;;;;5074501;28;20070;-71
2024/01/17 10:41:56;;;;;;;15.35;8.52;;;-0.40;99.90;;;;;;5057949;28;20044;-71
2024/01/17 10:44:23;;;;;;;14.50;9.20;;;-0.40;99.90;;;;;;5091277;28;20147;-71
2024/01/17 10:46:53;;;;;;;13.63;8.65;;;-0.40;99.90;;;;;;5074479;28;20040;-72
2024/01/17 10:49:20;;;;;;;18.00;8.77;;;-0.30;99.90;;;;;;5057675;28;20083;-71
2024/01/17 10:52:07;;;;;;;14.63;8.70;;;-0.30;99.90;;;;;;5074477;28;20040;-71
2024/01/17 10:54:58;;;;;;;16.63;8.80;;;-0.30;99.90;;;;;;5074392;28;20115;-71
2024/01/17 10:57:26;;;;;;;15.15;8.80;;;-0.20;99.90;;;;;;5071316;28;20045;-71
2024/01/17 10:59:52;;;;;;;17.00;8.43;;;-0.10;99.90;;;;;;5057986;28;20058;-69
2024/01/17 11:02:23;;;;;;;14.85;8.65;;;-0.10;99.90;;;;;;5041047;28;20040;-69
2024/01/17 11:05:11;;;;;;;14.98;9.15;;;0.00;99.90;;;;;;5074335;28;20158;-69
2024/01/17 11:07:37;;;;;;;13.60;8.50;;;0.00;99.90;;;;;;5074168;28;20166;-69
2024/01/17 11:10:05;;;;;;;13.88;8.55;;;0.10;99.90;;;;;;5057592;28;20044;-69
2024/01/17 11:12:36;;;;;;;14.75;8.80;;;0.00;99.90;;;;;;5074386;28;20051;-69
2024/01/17 11:15:03;;;;;;;18.67;8.95;;;0.10;99.90;;;;;;5091366;28;20461;-69
2024/01/17 11:17:35;;;;;;;14.38;8.57;;;0.20;99.90;;;;;;5057882;28;20377;-69
2024/01/17 11:20:07;;;;;;;15.75;9.23;;;0.20;99.90;;;;;;5075351;28;20043;-69
2024/01/17 11:22:37;;;;;;;;;;;0.10;99.90;;;;;;5070965;28;20061;-69
2024/01/17 11:25:07;;;;;;;15.07;8.75;;;0.20;99.90;;;;;;5074464;28;19916;-69
2024/01/17 11:27:40;;;;;;;16.40;9.10;;;0.20;99.90;;;;;;5058005;28;20094;-69
2024/01/17 11:30:20;;;;;;;15.45;8.90;;;0.30;99.90;;;;;;5057621;28;20097;-69
2024/01/17 11:33:01;;;;;;;15.40;8.77;;;0.30;99.90;;;;;;5057677;28;20040;-69
2024/01/17 11:35:43;;;;;;;16.27;8.70;;;0.30;99.90;;;;;;5058039;28;20048;-69
2024/01/17 11:38:32;;;;;;;16.30;8.85;;;0.40;99.90;;;;;;5058350;28;20036;-69
2024/01/17 11:41:08;;;;;;;14.60;8.88;;;0.40;99.90;;;;;;5057338;28;20047;-69
2024/01/17 11:43:38;;;;;;;14.45;9.00;;;0.40;99.90;;;;;;5057434;28;20047;-69
2024/01/17 11:46:06;;;;;;;15.15;8.63;;;0.40;99.90;;;;;;5057438;28;20044;-69
2024/01/17 11:48:35;;;;;;;15.45;8.27;;;0.40;99.90;;;;;;5057436;28;20083;-69
2024/01/17 11:51:14;;;;;;;15.80;8.80;;;0.50;99.90;;;;;;5040520;28;20036;-69
2024/01/17 11:53:46;;;;;;;14.52;8.65;;;0.50;99.90;;;;;;5040722;28;20043;-69
2024/01/17 11:56:13;;;;;;;13.57;9.07;;;0.50;99.90;;;;;;5040881;28;20401;-69
2024/01/17 11:58:43;;;;;;;16.92;8.98;;;0.40;99.90;;;;;;5040619;28;20040;-69
2024/01/17 12:01:24;;;;;;;15.05;8.57;;;0.60;99.90;;;;;;5057092;28;20049;-69
2024/01/17 12:03:50;;;;;;;16.20;8.63;;;0.50;99.90;;;;;;5057367;28;20044;-69
2024/01/17 12:06:26;;;;;;;14.57;8.43;;;0.50;99.90;;;;;;5057030;28;20044;-69
2024/01/17 12:08:52;;;;;;;14.50;9.13;;;0.60;99.90;;;;;;5056980;28;20076;-69
2024/01/17 12:11:18;;;;;;;14.02;8.93;;;0.50;99.90;;;;;;5056975;28;20093;-69
2024/01/17 12:13:47;;;;;;;15.20;8.77;;;0.60;99.90;;;;;;5056847;28;20086;-69
2024/01/17 12:16:15;;;;;;;15.40;9.50;;;0.60;99.90;;;;;;5057130;28;20043;-69
2024/01/17 12:18:41;;;;;;;14.95;8.95;;;0.60;99.90;;;;;;5057016;28;20531;-69
2024/01/17 12:21:07;;;;;;;17.65;9.25;;;0.60;99.90;;;;;;5056580;28;20044;-69
2024/01/17 12:23:35;;;;;;;14.82;8.98;;;0.60;99.90;;;;;;5056680;28;20194;-69
2024/01/17 12:26:01;;;;;;;15.05;8.68;;;0.60;99.90;;;;;;5057013;28;20056;-69
2024/01/17 12:28:28;;;;;;;16.20;9.35;;;0.70;99.90;;;;;;5040084;28;20056;-69
2024/01/17 12:30:58;;;;;;;16.75;9.25;;;0.50;99.90;;;;;;5039585;28;20464;-69
2024/01/17 12:33:24;;;;;;;14.85;8.93;;;0.60;99.90;;;;;;5056217;28;20477;-69